createdAt,value
2019-03-12T00:00:31.045Z,99.99
2019-03-12T00:01:31.119Z,99.99
2019-03-12T00:02:31.128Z,99.99
2019-03-12T00:03:31.118Z,99.99
2019-03-12T00:04:31.058Z,99.99
2019-03-12T00:05:31.117Z,99.99
2019-03-12T00:06:31.124Z,99.99
2019-03-12T00:07:31.077Z,99.99
2019-03-12T00:08:31.053Z,99.99
2019-03-12T00:09:31.061Z,99.99
2019-03-12T00:10:31.069Z,99.99
2019-03-12T00:11:31.126Z,99.99
2019-03-12T00:12:31.125Z,99.99
2019-03-12T00:13:31.055Z,99.99
2019-03-12T00:14:31.077Z,99.99
2019-03-12T00:15:31.057Z,99.99
2019-03-12T00:16:31.071Z,99.99
2019-03-12T00:17:31.136Z,99.99
2019-03-12T00:18:31.059Z,99.99
2019-03-12T00:19:31.069Z,99.99
2019-03-12T00:20:31.137Z,99.99
2019-03-12T00:21:31.132Z,99.99
2019-03-12T00:22:31.166Z,99.99
2019-03-12T00:23:31.065Z,99.99
2019-03-12T00:24:31.051Z,99.99
2019-03-12T00:25:31.055Z,99.99
2019-03-12T00:26:31.125Z,99.99
2019-03-12T00:27:31.095Z,99.99
2019-03-12T00:28:31.060Z,99.99
2019-03-12T00:29:31.127Z,99.99
2019-03-12T00:30:31.128Z,99.99
2019-03-12T00:31:31.065Z,99.99
2019-03-12T00:32:31.057Z,99.99
2019-03-12T00:33:31.055Z,99.99
2019-03-12T00:34:31.142Z,99.99
2019-03-12T00:35:31.080Z,99.99
2019-03-12T00:36:31.074Z,99.99
2019-03-12T00:37:31.149Z,99.99
2019-03-12T00:38:31.083Z,99.99
2019-03-12T00:39:31.075Z,99.99
2019-03-12T00:40:31.095Z,99.99
2019-03-12T00:41:31.107Z,99.99
2019-03-12T00:42:31.089Z,99.99
2019-03-12T00:43:31.038Z,99.99
2019-03-12T00:44:31.075Z,99.99
2019-03-12T00:45:31.140Z,99.99
2019-03-12T00:46:31.145Z,99.99
2019-03-12T00:47:31.140Z,99.99
2019-03-12T00:48:31.120Z,99.99
2019-03-12T00:49:31.071Z,99.99
2019-03-12T00:50:31.143Z,99.99
2019-03-12T00:51:31.073Z,99.99
2019-03-12T00:52:31.157Z,99.99
2019-03-12T00:53:31.166Z,99.99
2019-03-12T00:54:31.083Z,99.99
2019-03-12T00:55:31.164Z,99.99
2019-03-12T00:56:31.165Z,99.99
2019-03-12T00:57:31.220Z,99.99
2019-03-12T00:58:31.163Z,99.99
2019-03-12T00:59:31.087Z,99.99
2019-03-12T01:00:31.183Z,99.99
2019-03-12T01:01:31.093Z,99.99
2019-03-12T01:02:31.162Z,99.99
2019-03-12T01:03:31.164Z,99.99
2019-03-12T01:04:31.103Z,99.99
2019-03-12T01:05:31.109Z,99.99
2019-03-12T01:06:31.171Z,99.99
2019-03-12T01:07:31.114Z,99.99
2019-03-12T01:08:31.106Z,99.99
2019-03-12T01:09:31.095Z,99.99
2019-03-12T01:10:31.061Z,99.99
2019-03-12T01:11:31.115Z,99.99
2019-03-12T01:12:31.172Z,99.99
2019-03-12T01:13:31.184Z,99.99
2019-03-12T01:14:31.110Z,99.99
2019-03-12T01:15:31.117Z,99.99
2019-03-12T01:16:31.180Z,99.99
2019-03-12T01:17:31.184Z,99.99
2019-03-12T01:18:31.127Z,99.99
2019-03-12T01:19:31.114Z,99.99
2019-03-12T01:20:31.181Z,99.99
2019-03-12T01:21:31.124Z,99.99
2019-03-12T01:22:31.117Z,99.99
2019-03-12T01:23:31.125Z,99.99
2019-03-12T01:24:31.197Z,99.99
2019-03-12T01:25:31.167Z,99.99
2019-03-12T01:26:31.110Z,99.99
2019-03-12T01:27:31.175Z,99.99
2019-03-12T01:28:31.110Z,99.99
2019-03-12T01:29:31.099Z,99.99
2019-03-12T01:30:31.171Z,99.99
2019-03-12T01:31:31.114Z,99.99
2019-03-12T01:32:31.174Z,99.99
2019-03-12T01:33:31.101Z,99.99
2019-03-12T01:34:31.188Z,99.99
2019-03-12T01:35:31.072Z,99.99
2019-03-12T01:36:31.079Z,99.99
2019-03-12T01:37:31.130Z,99.99
2019-03-12T01:38:31.134Z,99.99
2019-03-12T01:39:31.182Z,99.99
2019-03-12T01:40:31.185Z,99.99
2019-03-12T01:41:31.140Z,99.99
2019-03-12T01:42:31.191Z,99.99
2019-03-12T01:43:31.193Z,99.99
2019-03-12T01:44:31.208Z,99.99
2019-03-12T01:45:31.194Z,99.99
2019-03-12T01:46:31.200Z,99.99
2019-03-12T01:47:31.184Z,99.99
2019-03-12T01:48:31.193Z,99.99
2019-03-12T01:49:31.196Z,99.99
2019-03-12T01:50:31.186Z,99.99
2019-03-12T01:51:31.476Z,99.99
2019-03-12T01:52:31.206Z,99.99
2019-03-12T01:53:31.140Z,99.99
2019-03-12T01:54:31.208Z,99.99
2019-03-12T01:55:31.198Z,99.99
2019-03-12T01:56:31.146Z,99.99
2019-03-12T01:57:31.136Z,99.99
2019-03-12T01:58:31.130Z,99.99
2019-03-12T01:59:31.203Z,99.99
2019-03-12T02:00:31.131Z,99.99
2019-03-12T02:01:31.203Z,99.99
2019-03-12T02:02:31.215Z,99.99
2019-03-12T02:03:31.135Z,99.99
2019-03-12T02:04:31.145Z,99.99
2019-03-12T02:05:31.133Z,99.99
2019-03-12T02:06:31.213Z,99.99
2019-03-12T02:07:31.233Z,99.99
2019-03-12T02:08:31.100Z,99.99
2019-03-12T02:09:31.270Z,99.99
2019-03-12T02:10:31.150Z,99.99
2019-03-12T02:11:31.149Z,99.99
2019-03-12T02:12:31.153Z,99.99
2019-03-12T02:13:31.157Z,99.99
2019-03-12T02:14:31.140Z,99.99
2019-03-12T02:15:31.225Z,99.99
2019-03-12T02:16:31.151Z,99.99
2019-03-12T02:17:31.144Z,99.99
2019-03-12T02:18:31.144Z,99.99
2019-03-12T02:19:31.219Z,99.99
2019-03-12T02:20:31.222Z,99.99
2019-03-12T02:21:31.148Z,99.99
2019-03-12T02:22:31.145Z,99.99
2019-03-12T02:23:31.221Z,99.99
2019-03-12T02:24:31.281Z,99.99
2019-03-12T02:25:31.229Z,99.99
2019-03-12T02:26:31.149Z,99.99
2019-03-12T02:27:31.221Z,99.99
2019-03-12T02:28:31.234Z,99.99
2019-03-12T02:29:31.157Z,99.99
2019-03-12T02:30:31.239Z,99.99
2019-03-12T02:31:31.229Z,99.99
2019-03-12T02:32:31.228Z,99.99
2019-03-12T02:33:31.271Z,99.99
2019-03-12T02:34:31.248Z,99.99
2019-03-12T02:35:31.234Z,99.99
2019-03-12T02:36:31.191Z,99.99
2019-03-12T02:37:31.162Z,99.99
2019-03-12T02:38:31.239Z,99.99
2019-03-12T02:39:31.176Z,99.99
2019-03-12T02:40:31.240Z,99.99
2019-03-12T02:41:31.242Z,99.99
2019-03-12T02:42:31.235Z,99.99
2019-03-12T02:43:31.182Z,99.99
2019-03-12T02:44:31.132Z,99.99
2019-03-12T02:45:31.106Z,99.99
2019-03-12T02:46:31.227Z,99.99
2019-03-12T02:47:31.228Z,99.99
2019-03-12T02:48:31.187Z,99.99
2019-03-12T02:49:31.217Z,99.99
2019-03-12T02:50:31.424Z,99.99
2019-03-12T02:51:31.188Z,99.99
2019-03-12T02:52:31.214Z,99.99
2019-03-12T02:53:31.164Z,99.99
2019-03-12T02:54:31.234Z,99.99
2019-03-12T02:55:31.163Z,99.99
2019-03-12T02:56:31.236Z,99.99
2019-03-12T02:57:31.168Z,99.99
2019-03-12T02:58:31.233Z,99.99
2019-03-12T02:59:31.174Z,99.99
2019-03-12T03:00:31.168Z,99.99
2019-03-12T03:01:31.175Z,99.99
2019-03-12T03:02:31.169Z,99.99
2019-03-12T03:03:31.129Z,99.99
2019-03-12T03:04:31.261Z,99.99
2019-03-12T03:05:31.180Z,99.99
2019-03-12T03:06:31.334Z,99.99
2019-03-12T03:07:31.193Z,99.99
2019-03-12T03:08:31.258Z,99.99
2019-03-12T03:09:31.258Z,99.99
2019-03-12T03:10:31.287Z,99.99
2019-03-12T03:11:31.200Z,99.99
2019-03-12T03:12:31.317Z,99.99
2019-03-12T03:13:31.203Z,99.99
2019-03-12T03:14:31.256Z,99.99
2019-03-12T03:15:31.259Z,99.99
2019-03-12T03:16:31.131Z,99.99
2019-03-12T03:17:31.247Z,99.99
2019-03-12T03:18:31.232Z,99.99
2019-03-12T03:19:31.209Z,99.99
2019-03-12T03:20:31.235Z,99.99
2019-03-12T03:21:31.152Z,99.99
2019-03-12T03:22:31.262Z,99.99
2019-03-12T03:23:31.247Z,99.99
2019-03-12T03:24:31.338Z,99.99
2019-03-12T03:25:31.285Z,99.99
2019-03-12T03:26:31.225Z,99.99
2019-03-12T03:27:31.235Z,99.99
2019-03-12T03:28:31.255Z,99.99
2019-03-12T03:29:31.216Z,99.99
2019-03-12T03:30:31.280Z,99.99
2019-03-12T03:31:31.161Z,99.99
2019-03-12T03:32:31.226Z,99.99
2019-03-12T03:33:31.215Z,99.99
2019-03-12T03:34:31.297Z,99.99
2019-03-12T03:35:31.237Z,99.99
2019-03-12T03:36:31.208Z,99.99
2019-03-12T03:37:31.289Z,99.99
2019-03-12T03:38:31.271Z,99.99
2019-03-12T03:39:31.301Z,99.99
2019-03-12T03:40:31.232Z,99.99
2019-03-12T03:41:34.525Z,99.99
2019-03-12T03:42:31.223Z,99.99
2019-03-12T03:43:31.289Z,99.99
2019-03-12T03:44:31.275Z,99.99
2019-03-12T03:45:31.204Z,99.99
2019-03-12T03:46:31.197Z,99.99
2019-03-12T03:47:31.273Z,99.99
2019-03-12T03:48:31.280Z,99.99
2019-03-12T03:49:31.210Z,99.99
2019-03-12T03:50:31.206Z,99.99
2019-03-12T03:51:31.273Z,99.99
2019-03-12T03:52:31.214Z,99.99
2019-03-12T03:53:31.275Z,99.99
2019-03-12T03:54:31.215Z,99.99
2019-03-12T03:55:31.222Z,99.99
2019-03-12T03:56:31.297Z,99.99
2019-03-12T03:57:31.224Z,99.99
2019-03-12T03:58:31.218Z,99.99
2019-03-12T03:59:31.216Z,99.99
2019-03-12T04:00:31.294Z,99.99
2019-03-12T04:01:31.362Z,99.99
2019-03-12T04:02:31.298Z,99.99
2019-03-12T04:03:31.219Z,99.99
2019-03-12T04:04:31.223Z,99.99
2019-03-12T04:05:31.237Z,99.99
2019-03-12T04:06:34.181Z,99.99
2019-03-12T04:07:31.311Z,99.99
2019-03-12T04:08:31.229Z,99.99
2019-03-12T04:09:31.304Z,99.99
2019-03-12T04:10:31.315Z,99.99
2019-03-12T04:11:31.291Z,99.99
2019-03-12T04:12:31.251Z,99.99
2019-03-12T04:13:31.250Z,99.99
2019-03-12T04:14:31.243Z,99.99
2019-03-12T04:15:31.294Z,99.99
2019-03-12T04:16:31.250Z,99.99
2019-03-12T04:17:31.251Z,99.99
2019-03-12T04:18:31.249Z,99.99
2019-03-12T04:19:31.272Z,99.99
2019-03-12T04:20:31.323Z,99.99
2019-03-12T04:21:31.306Z,99.99
2019-03-12T04:22:31.307Z,99.99
2019-03-12T04:23:31.312Z,99.99
2019-03-12T04:24:31.353Z,99.99
2019-03-12T04:25:31.257Z,99.99
2019-03-12T04:26:31.241Z,99.99
2019-03-12T04:27:31.318Z,99.99
2019-03-12T04:28:31.375Z,99.99
2019-03-12T04:29:31.242Z,99.99
2019-03-12T04:30:31.255Z,99.99
2019-03-12T04:31:31.313Z,99.99
2019-03-12T04:32:31.253Z,99.99
2019-03-12T04:33:31.362Z,99.99
2019-03-12T04:34:31.209Z,99.99
2019-03-12T04:35:31.315Z,99.99
2019-03-12T04:36:31.270Z,99.99
2019-03-12T04:37:31.322Z,99.99
2019-03-12T04:38:31.327Z,99.99
2019-03-12T04:39:31.245Z,99.99
2019-03-12T04:40:31.262Z,99.99
2019-03-12T04:41:31.331Z,99.99
2019-03-12T04:42:31.326Z,99.99
2019-03-12T04:43:31.250Z,99.99
2019-03-12T04:44:31.163Z,99.99
2019-03-12T04:45:31.256Z,99.99
2019-03-12T04:46:31.263Z,99.99
2019-03-12T04:47:31.285Z,99.99
2019-03-12T04:48:31.165Z,99.99
2019-03-12T04:49:31.331Z,99.99
2019-03-12T04:50:31.169Z,99.99
2019-03-12T04:51:31.169Z,99.99
2019-03-12T04:52:31.258Z,99.99
2019-03-12T04:53:31.168Z,99.99
2019-03-12T04:54:31.270Z,99.99
2019-03-12T04:55:31.400Z,99.99
2019-03-12T04:56:31.259Z,99.99
2019-03-12T04:57:31.345Z,99.99
2019-03-12T04:58:31.329Z,99.99
2019-03-12T04:59:31.274Z,99.99
2019-03-12T05:00:31.228Z,99.99
2019-03-12T05:01:31.336Z,99.99
2019-03-12T05:02:31.339Z,99.99
2019-03-12T05:03:31.324Z,99.99
2019-03-12T05:04:31.263Z,99.99
2019-03-12T05:05:31.275Z,99.99
2019-03-12T05:06:31.338Z,99.99
2019-03-12T05:07:31.340Z,99.99
2019-03-12T05:08:31.267Z,99.99
2019-03-12T05:09:31.270Z,99.99
2019-03-12T05:10:31.341Z,99.99
2019-03-12T05:11:31.391Z,99.99
2019-03-12T05:12:31.340Z,99.99
2019-03-12T05:13:31.346Z,99.99
2019-03-12T05:14:31.265Z,99.99
2019-03-12T05:15:31.330Z,99.99
2019-03-12T05:16:31.279Z,99.99
2019-03-12T05:17:31.415Z,99.99
2019-03-12T05:18:31.263Z,99.99
2019-03-12T05:19:31.266Z,99.99
2019-03-12T05:20:31.261Z,99.99
2019-03-12T05:21:31.280Z,99.99
2019-03-12T05:22:31.336Z,99.99
2019-03-12T05:23:31.271Z,99.99
2019-03-12T05:24:31.342Z,99.99
2019-03-12T05:25:31.348Z,99.99
2019-03-12T05:26:31.357Z,99.99
2019-03-12T05:27:31.348Z,99.99
2019-03-12T05:28:31.280Z,99.99
2019-03-12T05:29:31.279Z,99.99
2019-03-12T05:30:31.355Z,99.99
2019-03-12T05:31:31.281Z,99.99
2019-03-12T05:32:31.282Z,99.99
2019-03-12T05:33:31.298Z,99.99
2019-03-12T05:34:31.368Z,99.99
2019-03-12T05:35:31.351Z,99.99
2019-03-12T05:36:31.255Z,99.99
2019-03-12T05:37:31.360Z,99.99
2019-03-12T05:38:31.306Z,99.99
2019-03-12T05:39:31.359Z,99.99
2019-03-12T05:40:31.298Z,99.99
2019-03-12T05:41:31.476Z,99.99
2019-03-12T05:42:31.359Z,99.99
2019-03-12T05:43:31.368Z,99.99
2019-03-12T05:44:31.375Z,99.99
2019-03-12T05:45:31.339Z,99.99
2019-03-12T05:46:31.283Z,99.99
2019-03-12T05:47:31.277Z,99.99
2019-03-12T05:48:31.355Z,99.99
2019-03-12T05:49:31.337Z,99.99
2019-03-12T05:50:31.340Z,99.99
2019-03-12T05:51:31.339Z,99.99
2019-03-12T05:52:31.232Z,99.99
2019-03-12T05:53:31.312Z,99.99
2019-03-12T05:54:31.342Z,99.99
2019-03-12T05:55:31.326Z,99.99
2019-03-12T05:56:31.283Z,99.99
2019-03-12T05:57:31.361Z,99.99
2019-03-12T05:58:31.362Z,99.99
2019-03-12T05:59:31.368Z,99.99
2019-03-12T06:00:31.289Z,99.99
2019-03-12T06:01:31.364Z,99.99
2019-03-12T06:02:31.411Z,99.99
2019-03-12T06:03:31.380Z,99.99
2019-03-12T06:04:31.320Z,99.99
2019-03-12T06:05:31.313Z,99.99
2019-03-12T06:06:31.385Z,99.99
2019-03-12T06:07:31.373Z,99.99
2019-03-12T06:08:31.374Z,99.99
2019-03-12T06:09:31.375Z,99.99
2019-03-12T06:10:31.391Z,99.99
2019-03-12T06:11:31.324Z,99.99
2019-03-12T06:12:31.314Z,99.99
2019-03-12T06:13:31.317Z,99.99
2019-03-12T06:14:31.318Z,99.99
2019-03-12T06:15:31.311Z,99.99
2019-03-12T06:16:31.310Z,99.99
2019-03-12T06:17:31.381Z,99.99
2019-03-12T06:18:31.316Z,99.99
2019-03-12T06:19:31.383Z,99.99
2019-03-12T06:20:31.319Z,99.99
2019-03-12T06:21:31.395Z,99.99
2019-03-12T06:22:31.317Z,99.99
2019-03-12T06:23:31.385Z,99.99
2019-03-12T06:24:31.385Z,99.99
2019-03-12T06:25:31.283Z,99.99
2019-03-12T06:26:31.334Z,99.99
2019-03-12T06:27:31.405Z,99.99
2019-03-12T06:28:31.420Z,99.86
2019-03-12T06:29:31.322Z,99.78
2019-03-12T06:30:31.393Z,99.62
2019-03-12T06:31:31.399Z,99.37
2019-03-12T06:32:31.320Z,99.04
2019-03-12T06:33:31.324Z,98.80
2019-03-12T06:34:31.330Z,98.42
2019-03-12T06:35:31.396Z,97.99
2019-03-12T06:36:31.336Z,97.72
2019-03-12T06:37:31.419Z,97.23
2019-03-12T06:38:31.399Z,96.80
2019-03-12T06:39:31.328Z,96.42
2019-03-12T06:40:31.358Z,96.04
2019-03-12T06:41:31.337Z,95.80
2019-03-12T06:42:31.332Z,95.42
2019-03-12T06:43:31.400Z,95.23
2019-03-12T06:44:31.408Z,95.07
2019-03-12T06:45:31.391Z,95.01
2019-03-12T06:46:31.304Z,94.80
2019-03-12T06:47:31.482Z,94.42
2019-03-12T06:48:31.274Z,94.07
2019-03-12T06:49:31.408Z,93.67
2019-03-12T06:50:31.331Z,93.48
2019-03-12T06:51:31.306Z,93.32
2019-03-12T06:52:31.329Z,93.37
2019-03-12T06:53:31.312Z,93.29
2019-03-12T06:54:31.324Z,93.10
2019-03-12T06:55:31.410Z,93.18
2019-03-12T06:56:31.411Z,93.29
2019-03-12T06:57:31.417Z,93.51
2019-03-12T06:58:31.412Z,93.72
2019-03-12T06:59:31.372Z,93.78
2019-03-12T07:00:31.344Z,93.81
2019-03-12T07:01:31.344Z,93.81
2019-03-12T07:02:31.412Z,93.85
2019-03-12T07:03:31.349Z,93.85
2019-03-12T07:04:31.415Z,93.89
2019-03-12T07:05:31.353Z,93.99
2019-03-12T07:06:31.414Z,93.94
2019-03-12T07:07:31.420Z,93.99
2019-03-12T07:08:31.347Z,93.99
2019-03-12T07:09:31.423Z,94.02
2019-03-12T07:10:31.349Z,94.02
2019-03-12T07:11:31.420Z,94.12
2019-03-12T07:12:31.348Z,94.10
2019-03-12T07:13:31.358Z,94.07
2019-03-12T07:14:31.421Z,93.89
2019-03-12T07:15:31.417Z,93.94
2019-03-12T07:16:31.416Z,94.02
2019-03-12T07:17:31.419Z,93.99
2019-03-12T07:18:31.298Z,93.91
2019-03-12T07:19:31.424Z,93.67
2019-03-12T07:20:31.434Z,93.48
2019-03-12T07:21:31.353Z,93.08
2019-03-12T07:22:31.363Z,92.84
2019-03-12T07:23:31.393Z,92.76
2019-03-12T07:24:31.418Z,92.84
2019-03-12T07:25:31.427Z,92.81
2019-03-12T07:26:31.368Z,92.70
2019-03-12T07:27:31.438Z,92.70
2019-03-12T07:28:31.365Z,92.68
2019-03-12T07:29:31.431Z,92.65
2019-03-12T07:30:31.362Z,92.62
2019-03-12T07:31:31.367Z,92.49
2019-03-12T07:32:31.431Z,92.24
2019-03-12T07:33:31.406Z,92.16
2019-03-12T07:34:36.513Z,91.90
2019-03-12T07:35:31.356Z,91.38
2019-03-12T07:36:31.343Z,91.14
2019-03-12T07:37:31.376Z,91.14
2019-03-12T07:38:31.389Z,90.96
2019-03-12T07:39:31.427Z,90.90
2019-03-12T07:40:31.366Z,91.09
2019-03-12T07:41:32.749Z,90.69
2019-03-12T07:42:31.399Z,90.34
2019-03-12T07:43:31.365Z,89.91
2019-03-12T07:44:31.352Z,89.99
2019-03-12T07:45:31.431Z,90.20
2019-03-12T07:46:31.360Z,90.31
2019-03-12T07:47:35.941Z,90.47
2019-03-12T07:48:31.379Z,90.61
2019-03-12T07:49:31.378Z,90.71
2019-03-12T07:50:31.341Z,91.11
2019-03-12T07:51:31.349Z,91.33
2019-03-12T07:52:31.442Z,91.38
2019-03-12T07:53:31.399Z,91.20
2019-03-12T07:54:31.417Z,90.69
2019-03-12T07:55:31.437Z,90.69
2019-03-12T07:56:31.358Z,90.63
2019-03-12T07:58:35.981Z,90.96
2019-03-12T07:59:31.379Z,91.17
2019-03-12T08:00:31.324Z,91.14
2019-03-12T08:01:31.445Z,90.80
2019-03-12T08:02:31.470Z,90.45
2019-03-12T08:03:31.447Z,90.45
2019-03-12T08:04:31.377Z,90.09
2019-03-12T08:05:31.450Z,89.88
2019-03-12T08:06:31.344Z,89.99
2019-03-12T08:07:31.369Z,90.20
2019-03-12T08:08:31.406Z,90.36
2019-03-12T08:09:31.363Z,90.74
2019-03-12T08:10:33.773Z,90.66
2019-03-12T08:11:31.454Z,90.74
2019-03-12T08:12:34.277Z,90.61
2019-03-12T08:13:31.380Z,90.07
2019-03-12T08:14:31.382Z,89.22
2019-03-12T08:15:31.411Z,87.96
2019-03-12T08:16:31.557Z,87.53
2019-03-12T08:17:31.457Z,87.51
2019-03-12T08:18:31.395Z,85.85
2019-03-12T08:19:31.455Z,84.74
2019-03-12T08:20:31.393Z,84.05
2019-03-12T08:21:31.403Z,83.62
2019-03-12T08:22:31.377Z,82.72
2019-03-12T08:23:31.342Z,82.75
2019-03-12T08:24:31.397Z,82.90
2019-03-12T08:25:31.483Z,82.35
2019-03-12T08:26:31.470Z,81.92
2019-03-12T08:27:31.404Z,81.45
2019-03-12T08:28:31.475Z,81.18
2019-03-12T08:29:31.413Z,80.92
2019-03-12T08:30:31.475Z,80.73
2019-03-12T08:31:31.483Z,80.10
2019-03-12T08:32:31.407Z,79.75
2019-03-12T08:33:31.430Z,79.23
2019-03-12T08:34:31.478Z,78.86
2019-03-12T08:35:31.435Z,78.62
2019-03-12T08:36:31.378Z,78.44
2019-03-12T08:37:31.476Z,78.89
2019-03-12T08:38:31.418Z,79.20
2019-03-12T08:39:31.482Z,78.99
2019-03-12T08:40:31.488Z,78.94
2019-03-12T08:41:31.413Z,79.25
2019-03-12T08:42:31.482Z,78.99
2019-03-12T08:43:31.417Z,77.62
2019-03-12T08:44:31.484Z,76.97
2019-03-12T08:45:31.402Z,76.94
2019-03-12T08:46:31.478Z,77.44
2019-03-12T08:47:31.405Z,75.76
2019-03-12T08:48:31.426Z,76.28
2019-03-12T08:49:34.668Z,76.57
2019-03-12T08:50:31.482Z,76.54
2019-03-12T08:51:31.392Z,76.15
2019-03-12T08:52:31.458Z,76.46
2019-03-12T08:53:31.492Z,75.92
2019-03-12T08:54:31.398Z,75.65
2019-03-12T08:55:31.399Z,75.47
2019-03-12T08:56:32.818Z,74.29
2019-03-12T08:57:31.380Z,73.69
2019-03-12T08:58:31.421Z,73.87
2019-03-12T08:59:31.487Z,72.88
2019-03-12T09:00:31.490Z,73.42
2019-03-12T09:01:31.422Z,73.50
2019-03-12T09:02:31.490Z,73.16
2019-03-12T09:03:31.457Z,74.11
2019-03-12T09:04:31.460Z,75.49
2019-03-12T09:05:31.401Z,75.05
2019-03-12T09:06:31.495Z,76.04
2019-03-12T09:07:31.459Z,75.89
2019-03-12T09:08:31.454Z,75.34
2019-03-12T09:09:31.421Z,75.34
2019-03-12T09:10:31.489Z,77.04
2019-03-12T09:11:31.424Z,76.46
2019-03-12T09:12:31.510Z,75.86
2019-03-12T09:13:31.425Z,75.60
2019-03-12T09:14:31.433Z,75.62
2019-03-12T09:15:31.507Z,74.99
2019-03-12T09:16:31.512Z,73.58
2019-03-12T09:17:31.506Z,74.63
2019-03-12T09:18:31.441Z,75.29
2019-03-12T09:19:31.518Z,75.23
2019-03-12T09:20:31.512Z,75.02
2019-03-12T09:21:31.441Z,74.08
2019-03-12T09:22:31.535Z,74.63
2019-03-12T09:23:31.511Z,75.10
2019-03-12T09:24:31.465Z,75.18
2019-03-12T09:25:31.514Z,75.07
2019-03-12T09:26:31.520Z,75.23
2019-03-12T09:27:31.512Z,75.15
2019-03-12T09:28:31.516Z,75.18
2019-03-12T09:29:31.525Z,73.93
2019-03-12T09:30:31.455Z,73.95
2019-03-12T09:31:31.525Z,74.58
2019-03-12T09:32:31.449Z,74.71
2019-03-12T09:33:31.450Z,74.44
2019-03-12T09:34:31.529Z,75.10
2019-03-12T09:35:31.523Z,73.97
2019-03-12T09:36:31.482Z,75.23
2019-03-12T09:37:31.526Z,74.73
2019-03-12T09:38:31.524Z,74.94
2019-03-12T09:39:31.467Z,76.31
2019-03-12T09:40:31.532Z,75.07
2019-03-12T09:41:31.522Z,75.05
2019-03-12T09:42:31.459Z,74.29
2019-03-12T09:43:31.524Z,74.40
2019-03-12T09:44:31.473Z,74.63
2019-03-12T09:45:31.464Z,73.06
2019-03-12T09:46:31.530Z,73.77
2019-03-12T09:47:31.539Z,74.84
2019-03-12T09:48:31.533Z,74.55
2019-03-12T09:49:31.469Z,74.08
2019-03-12T09:50:31.531Z,74.36
2019-03-12T09:51:31.463Z,72.83
2019-03-12T09:52:31.541Z,73.19
2019-03-12T09:53:31.536Z,72.53
2019-03-12T09:54:31.467Z,71.83
2019-03-12T09:55:31.472Z,72.38
2019-03-12T09:56:31.470Z,73.30
2019-03-12T09:57:31.538Z,72.72
2019-03-12T09:58:31.475Z,72.69
2019-03-12T09:59:31.546Z,71.78
2019-03-12T10:00:31.470Z,71.86
2019-03-12T10:01:31.538Z,73.37
2019-03-12T10:02:31.541Z,70.87
2019-03-12T10:03:31.546Z,70.89
2019-03-12T10:04:31.539Z,72.20
2019-03-12T10:05:31.473Z,71.89
2019-03-12T10:06:31.542Z,70.71
2019-03-12T10:07:31.485Z,71.52
2019-03-12T10:08:31.572Z,71.60
2019-03-12T10:09:31.630Z,71.42
2019-03-12T10:10:31.483Z,71.96
2019-03-12T10:11:31.477Z,71.75
2019-03-12T10:12:31.555Z,71.75
2019-03-12T10:13:31.555Z,70.48
2019-03-12T10:14:31.483Z,70.19
2019-03-12T10:15:31.525Z,69.59
2019-03-12T10:16:31.528Z,70.06
2019-03-12T10:17:31.454Z,69.49
2019-03-12T10:18:31.479Z,70.74
2019-03-12T10:19:31.532Z,70.48
2019-03-12T10:20:31.532Z,71.18
2019-03-12T10:21:31.477Z,71.00
2019-03-12T10:22:31.485Z,70.17
2019-03-12T10:23:31.496Z,70.79
2019-03-12T10:24:31.461Z,70.76
2019-03-12T10:25:31.492Z,71.07
2019-03-12T10:26:31.488Z,70.58
2019-03-12T10:27:31.570Z,70.56
2019-03-12T10:28:31.555Z,70.40
2019-03-12T10:29:31.492Z,70.50
2019-03-12T10:30:31.491Z,70.24
2019-03-12T10:31:31.542Z,71.21
2019-03-12T10:32:31.568Z,71.34
2019-03-12T10:33:31.501Z,71.39
2019-03-12T10:34:31.564Z,71.00
2019-03-12T10:35:31.505Z,71.52
2019-03-12T10:36:31.486Z,70.92
2019-03-12T10:37:31.485Z,70.71
2019-03-12T10:38:31.572Z,71.42
2019-03-12T10:39:31.555Z,71.34
2019-03-12T10:40:31.529Z,71.05
2019-03-12T10:41:31.553Z,70.64
2019-03-12T10:42:31.492Z,71.15
2019-03-12T10:43:31.511Z,71.15
2019-03-12T10:44:31.474Z,70.32
2019-03-12T10:45:31.578Z,70.09
2019-03-12T10:46:31.542Z,70.21
2019-03-12T10:47:31.567Z,71.18
2019-03-12T10:48:31.506Z,70.27
2019-03-12T10:49:37.455Z,70.19
2019-03-12T10:50:31.584Z,70.21
2019-03-12T10:51:31.577Z,70.82
2019-03-12T10:52:31.584Z,68.79
2019-03-12T10:53:31.508Z,69.46
2019-03-12T10:54:31.510Z,69.28
2019-03-12T10:55:31.596Z,68.58
2019-03-12T10:56:31.509Z,67.57
2019-03-12T10:57:31.526Z,67.72
2019-03-12T10:58:31.513Z,69.44
2019-03-12T10:59:31.580Z,69.30
2019-03-12T11:00:31.590Z,67.57
2019-03-12T11:01:31.600Z,67.67
2019-03-12T11:02:31.511Z,68.37
2019-03-12T11:03:31.585Z,68.68
2019-03-12T11:04:31.584Z,68.29
2019-03-12T11:05:44.906Z,67.16
2019-03-12T11:06:31.588Z,69.57
2019-03-12T11:07:31.524Z,67.41
2019-03-12T11:08:31.588Z,67.75
2019-03-12T11:09:31.590Z,68.53
2019-03-12T11:10:31.545Z,67.49
2019-03-12T11:11:31.589Z,68.16
2019-03-12T11:12:31.535Z,69.10
2019-03-12T11:13:31.602Z,69.26
2019-03-12T11:14:31.593Z,69.07
2019-03-12T11:15:31.515Z,68.71
2019-03-12T11:16:31.513Z,69.05
2019-03-12T11:17:31.585Z,69.82
2019-03-12T11:18:31.523Z,69.36
2019-03-12T11:19:31.466Z,69.90
2019-03-12T11:20:31.517Z,69.44
2019-03-12T11:21:31.544Z,70.29
2019-03-12T11:22:31.513Z,70.19
2019-03-12T11:23:31.484Z,69.65
2019-03-12T11:24:31.560Z,69.59
2019-03-12T11:25:31.530Z,68.63
2019-03-12T11:26:31.601Z,69.02
2019-03-12T11:27:31.537Z,68.06
2019-03-12T11:28:31.610Z,68.66
2019-03-12T11:29:31.533Z,68.22
2019-03-12T11:30:31.570Z,68.11
2019-03-12T11:31:31.533Z,68.60
2019-03-12T11:32:31.607Z,68.53
2019-03-12T11:33:31.544Z,67.41
2019-03-12T11:34:31.606Z,66.64
2019-03-12T11:35:38.753Z,66.89
2019-03-12T11:36:31.745Z,67.57
2019-03-12T11:37:31.562Z,68.53
2019-03-12T11:38:31.623Z,67.88
2019-03-12T11:39:31.652Z,68.43
2019-03-12T11:40:32.774Z,67.70
2019-03-12T11:41:31.605Z,68.04
2019-03-12T11:42:31.642Z,69.07
2019-03-12T11:43:31.649Z,68.63
2019-03-12T11:44:31.643Z,68.11
2019-03-12T11:45:36.766Z,68.14
2019-03-12T11:46:41.388Z,68.71
2019-03-12T11:47:31.638Z,68.11
2019-03-12T11:48:31.628Z,68.99
2019-03-12T11:49:31.629Z,69.85
2019-03-12T11:50:31.549Z,69.96
2019-03-12T11:51:31.669Z,69.96
2019-03-12T11:52:31.615Z,68.89
2019-03-12T11:53:31.745Z,69.59
2019-03-12T11:54:31.550Z,69.77
2019-03-12T11:55:31.621Z,69.20
2019-03-12T11:56:31.566Z,69.20
2019-03-12T11:57:31.725Z,69.23
2019-03-12T11:58:31.575Z,67.96
2019-03-12T11:59:31.575Z,68.19
2019-03-12T12:00:31.660Z,67.16
2019-03-12T12:01:31.575Z,66.48
2019-03-12T12:02:31.629Z,66.37
2019-03-12T12:03:31.557Z,66.30
2019-03-12T12:04:31.639Z,66.45
2019-03-12T12:05:31.599Z,66.92
2019-03-12T12:06:31.527Z,67.36
2019-03-12T12:07:31.566Z,67.60
2019-03-12T12:08:31.753Z,68.84
2019-03-12T12:09:31.554Z,68.74
2019-03-12T12:10:31.593Z,68.08
2019-03-12T12:11:31.621Z,68.24
2019-03-12T12:12:31.621Z,68.32
2019-03-12T12:13:31.525Z,67.54
2019-03-12T12:14:31.559Z,67.70
2019-03-12T12:15:31.595Z,65.89
2019-03-12T12:16:31.572Z,65.50
2019-03-12T12:17:31.662Z,65.81
2019-03-12T12:18:31.637Z,66.01
2019-03-12T12:19:31.578Z,66.12
2019-03-12T12:20:31.588Z,66.64
2019-03-12T12:21:31.570Z,66.79
2019-03-12T12:22:31.648Z,66.66
2019-03-12T12:23:31.643Z,66.30
2019-03-12T12:24:31.644Z,66.06
2019-03-12T12:25:31.642Z,66.58
2019-03-12T12:26:31.641Z,66.30
2019-03-12T12:27:31.637Z,66.30
2019-03-12T12:28:31.572Z,66.77
2019-03-12T12:29:31.643Z,67.33
2019-03-12T12:30:31.651Z,66.84
2019-03-12T12:31:31.612Z,67.25
2019-03-12T12:32:31.600Z,67.16
2019-03-12T12:33:31.586Z,66.84
2019-03-12T12:34:31.577Z,67.93
2019-03-12T12:35:31.654Z,68.68
2019-03-12T12:36:31.552Z,68.45
2019-03-12T12:37:31.516Z,68.01
2019-03-12T12:38:31.518Z,67.77
2019-03-12T12:39:31.541Z,67.46
2019-03-12T12:40:31.645Z,67.39
2019-03-12T12:41:31.593Z,66.89
2019-03-12T12:42:31.556Z,66.74
2019-03-12T12:43:31.599Z,66.22
2019-03-12T12:44:31.635Z,66.40
2019-03-12T12:45:31.644Z,65.81
2019-03-12T12:46:31.532Z,65.83
2019-03-12T12:47:31.652Z,65.70
2019-03-12T12:48:31.578Z,64.88
2019-03-12T12:49:31.651Z,65.53
2019-03-12T12:50:31.586Z,64.90
2019-03-12T12:51:31.583Z,64.93
2019-03-12T12:52:31.652Z,64.75
2019-03-12T12:53:31.663Z,64.72